createdAt,value
2022-11-23T00:00:37.868Z,6.68
2022-11-23T00:02:45.271Z,6.69
2022-11-23T00:04:50.120Z,6.69
2022-11-23T00:06:55.014Z,6.69
2022-11-23T00:09:01.038Z,6.67
2022-11-23T00:11:06.078Z,6.67
2022-11-23T00:13:10.998Z,6.65
2022-11-23T00:15:18.737Z,6.61
2022-11-23T00:17:23.537Z,6.56
2022-11-23T00:19:28.330Z,6.53
2022-11-23T00:21:35.580Z,6.50
2022-11-23T00:23:40.751Z,6.46
2022-11-23T00:25:47.281Z,6.43
2022-11-23T00:27:52.064Z,6.39
2022-11-23T00:29:56.856Z,6.36
2022-11-23T00:32:04.235Z,6.37
2022-11-23T00:34:09.084Z,6.34
2022-11-23T00:36:15.962Z,6.30
2022-11-23T00:38:20.769Z,6.31
2022-11-23T00:40:27.117Z,6.29
2022-11-23T00:42:37.680Z,6.28
2022-11-23T00:44:42.976Z,6.30
2022-11-23T00:46:47.825Z,6.28
2022-11-23T00:48:57.580Z,6.27
2022-11-23T00:51:04.255Z,6.23
2022-11-23T00:53:09.241Z,6.22
2022-11-23T00:55:14.181Z,6.21
2022-11-23T00:57:18.941Z,6.20
2022-11-23T00:59:24.133Z,6.17
2022-11-23T01:01:31.048Z,6.17
2022-11-23T01:03:36.087Z,6.17
2022-11-23T01:05:43.803Z,6.18
2022-11-23T01:07:48.639Z,6.17
2022-11-23T01:09:53.432Z,6.17
2022-11-23T01:11:58.922Z,6.15
2022-11-23T01:14:04.215Z,6.13
2022-11-23T01:16:12.890Z,6.09
2022-11-23T01:18:17.644Z,6.05
2022-11-23T01:20:22.480Z,6.04
2022-11-23T01:22:29.869Z,6.02
2022-11-23T01:24:34.915Z,5.98
2022-11-23T01:26:39.695Z,5.94
2022-11-23T01:28:45.281Z,5.91
2022-11-23T01:30:50.178Z,5.88
2022-11-23T01:32:55.000Z,5.84
2022-11-23T01:34:59.788Z,5.85
2022-11-23T01:37:06.208Z,5.82
2022-11-23T01:39:14.625Z,5.80
2022-11-23T01:41:21.642Z,5.77
2022-11-23T01:43:26.474Z,5.76
2022-11-23T01:45:40.943Z,5.76
2022-11-23T01:47:46.880Z,5.72
2022-11-23T01:49:55.035Z,5.72
2022-11-23T01:52:05.341Z,5.67
2022-11-23T01:54:17.740Z,5.66
2022-11-23T01:56:27.810Z,5.64
2022-11-23T01:58:37.334Z,5.66
2022-11-23T02:00:42.746Z,5.64
2022-11-23T02:02:50.517Z,5.62
2022-11-23T02:04:57.936Z,5.61
2022-11-23T02:07:04.557Z,5.59
2022-11-23T02:09:10.095Z,5.60
2022-11-23T02:11:19.834Z,5.63
2022-11-23T02:13:27.863Z,5.64
2022-11-23T02:15:32.725Z,5.67
2022-11-23T02:17:37.808Z,5.69
2022-11-23T02:19:57.265Z,5.75
2022-11-23T02:22:05.257Z,5.77
2022-11-23T02:24:15.505Z,5.79
2022-11-23T02:26:26.176Z,5.82
2022-11-23T02:28:35.551Z,5.84
2022-11-23T02:30:45.258Z,5.89
2022-11-23T02:32:50.376Z,5.93
2022-11-23T02:34:55.901Z,5.96
2022-11-23T02:37:00.921Z,5.99
2022-11-23T02:39:11.687Z,5.97
2022-11-23T02:41:17.378Z,5.95
2022-11-23T02:43:26.317Z,5.94
2022-11-23T02:45:39.592Z,5.93
2022-11-23T02:47:44.538Z,5.88
2022-11-23T02:49:50.985Z,5.86
2022-11-23T02:51:56.510Z,5.75
2022-11-23T02:54:04.097Z,5.72
2022-11-23T02:56:09.217Z,5.74
2022-11-23T02:58:14.353Z,5.77
2022-11-23T03:00:22.750Z,5.79
2022-11-23T03:02:27.568Z,5.82
2022-11-23T03:04:32.569Z,5.84
2022-11-23T03:06:37.679Z,5.85
2022-11-23T03:08:45.066Z,5.87
2022-11-23T03:10:50.875Z,5.88
2022-11-23T03:12:58.311Z,5.88
2022-11-23T03:15:04.989Z,5.88
2022-11-23T03:17:13.865Z,5.86
2022-11-23T03:19:21.389Z,5.85
2022-11-23T03:21:32.558Z,5.82
2022-11-23T03:23:44.595Z,5.83
2022-11-23T03:25:58.198Z,5.81
2022-11-23T03:28:05.653Z,5.79
2022-11-23T03:30:12.848Z,5.77
2022-11-23T03:32:20.311Z,5.75
2022-11-23T03:34:28.660Z,5.72
2022-11-23T03:36:34.288Z,5.73
2022-11-23T03:38:39.165Z,5.74
2022-11-23T03:40:55.060Z,5.73
2022-11-23T03:43:07.275Z,5.75
2022-11-23T03:45:13.075Z,5.75
2022-11-23T03:47:21.217Z,5.76
2022-11-23T03:49:25.955Z,5.78
2022-11-23T03:51:31.352Z,5.79
2022-11-23T03:53:36.229Z,5.80
2022-11-23T03:55:43.940Z,5.77
2022-11-23T03:57:51.021Z,5.79
2022-11-23T03:59:55.868Z,5.78
2022-11-23T04:02:00.846Z,5.80
2022-11-23T04:04:13.000Z,5.82
2022-11-23T04:06:43.813Z,5.84
2022-11-23T04:09:00.508Z,5.88
2022-11-23T04:11:20.912Z,5.88
2022-11-23T04:13:27.707Z,5.91
2022-11-23T04:15:33.542Z,5.92
2022-11-23T04:17:38.803Z,5.95
2022-11-23T04:19:46.851Z,5.96
2022-11-23T04:21:53.053Z,5.96
2022-11-23T04:23:59.022Z,5.94
2022-11-23T04:26:05.169Z,5.94
2022-11-23T04:28:11.437Z,5.94
2022-11-23T04:30:17.983Z,5.92
2022-11-23T04:32:23.276Z,5.90
2022-11-23T04:34:28.374Z,5.90
2022-11-23T04:36:35.807Z,5.86
2022-11-23T04:38:40.643Z,5.88
2022-11-23T04:40:46.393Z,5.89
2022-11-23T04:42:51.224Z,5.90
2022-11-23T04:44:57.453Z,5.90
2022-11-23T04:47:03.271Z,5.92
2022-11-23T04:49:09.626Z,5.92
2022-11-23T04:51:16.399Z,5.96
2022-11-23T04:53:23.907Z,6.00
2022-11-23T04:55:29.089Z,6.04
2022-11-23T04:57:36.086Z,6.06
2022-11-23T04:59:40.869Z,6.07
2022-11-23T05:01:46.007Z,6.11
2022-11-23T05:04:20.093Z,6.13
2022-11-23T05:06:26.604Z,6.10
2022-11-23T05:08:35.222Z,6.12
2022-11-23T05:11:03.114Z,6.09
2022-11-23T05:13:08.207Z,6.08
2022-11-23T05:15:16.109Z,6.09
2022-11-23T05:17:22.399Z,6.09
2022-11-23T05:19:30.131Z,6.08
2022-11-23T05:21:35.288Z,6.07
2022-11-23T05:23:43.256Z,6.07
2022-11-23T05:25:48.121Z,6.01
2022-11-23T05:27:55.841Z,5.98
2022-11-23T05:30:00.426Z,5.93
2022-11-23T05:32:05.335Z,5.93
2022-11-23T05:34:10.772Z,5.92
2022-11-23T05:36:22.863Z,5.95
2022-11-23T05:38:28.430Z,5.98
2022-11-23T05:40:39.678Z,6.00
2022-11-23T05:42:45.974Z,5.96
2022-11-23T05:44:56.411Z,5.97
2022-11-23T05:47:09.959Z,5.98
2022-11-23T05:49:19.271Z,6.00
2022-11-23T05:51:24.025Z,6.02
2022-11-23T05:53:28.926Z,6.04
2022-11-23T05:55:43.240Z,6.05
2022-11-23T05:57:48.047Z,6.04
2022-11-23T05:59:54.311Z,6.03
2022-11-23T06:02:03.858Z,6.00
2022-11-23T06:04:10.975Z,5.95
2022-11-23T06:06:20.550Z,5.94
2022-11-23T06:08:25.470Z,5.92
2022-11-23T06:10:30.365Z,5.86
2022-11-23T06:12:38.038Z,5.81
2022-11-23T06:14:46.276Z,5.78
2022-11-23T06:16:54.145Z,5.72
2022-11-23T06:19:19.125Z,5.70
2022-11-23T06:21:23.991Z,5.74
2022-11-23T06:23:29.481Z,5.83
2022-11-23T06:25:38.496Z,5.87
2022-11-23T06:27:57.797Z,5.92
2022-11-23T06:30:08.933Z,5.91
2022-11-23T06:32:19.516Z,5.94
2022-11-23T06:34:25.125Z,6.00
2022-11-23T06:36:30.013Z,6.05
2022-11-23T06:38:36.349Z,6.12
2022-11-23T06:41:00.725Z,6.17
2022-11-23T06:43:09.906Z,6.13
2022-11-23T06:45:21.029Z,6.13
2022-11-23T06:47:30.542Z,6.11
2022-11-23T06:49:36.136Z,6.12
2022-11-23T06:51:54.046Z,6.17
2022-11-23T06:53:59.004Z,6.16
2022-11-23T06:56:04.930Z,6.18
2022-11-23T06:58:13.069Z,6.19
2022-11-23T07:00:18.950Z,6.21
2022-11-23T07:02:23.859Z,6.20
2022-11-23T07:04:28.670Z,6.17
2022-11-23T07:06:33.524Z,6.18
2022-11-23T07:08:44.178Z,6.13
2022-11-23T07:11:12.480Z,6.10
2022-11-23T07:13:20.093Z,6.06
2022-11-23T07:15:25.000Z,6.06
2022-11-23T07:17:31.020Z,6.05
2022-11-23T07:19:35.963Z,6.04
2022-11-23T07:21:40.767Z,6.03
2022-11-23T07:23:48.646Z,6.03
2022-11-23T07:25:53.485Z,6.05
2022-11-23T07:27:59.473Z,6.05
2022-11-23T07:30:08.887Z,6.06
2022-11-23T07:32:15.106Z,6.11
2022-11-23T07:34:19.963Z,6.13
2022-11-23T07:36:24.938Z,6.18
2022-11-23T07:38:29.760Z,6.19
2022-11-23T07:40:35.379Z,6.24
2022-11-23T07:42:44.799Z,6.22
2022-11-23T07:44:49.894Z,6.24
2022-11-23T07:46:58.450Z,6.26
2022-11-23T07:49:03.297Z,6.27
2022-11-23T07:51:08.176Z,6.27
2022-11-23T07:53:13.803Z,6.27
2022-11-23T07:55:18.828Z,6.31
2022-11-23T07:57:23.634Z,6.31
2022-11-23T07:59:28.534Z,6.32
2022-11-23T08:01:34.314Z,6.31
2022-11-23T08:03:41.813Z,6.32
2022-11-23T08:05:46.660Z,6.35
2022-11-23T08:07:51.419Z,6.42
2022-11-23T08:09:56.311Z,6.49
2022-11-23T08:12:01.188Z,6.56
2022-11-23T08:14:06.021Z,6.63
2022-11-23T08:16:10.789Z,6.70
2022-11-23T08:18:15.617Z,6.71
2022-11-23T08:20:23.100Z,6.73
2022-11-23T08:22:27.845Z,6.67
2022-11-23T08:24:32.996Z,6.73
2022-11-23T08:26:38.039Z,6.78
2022-11-23T08:28:42.820Z,6.83
2022-11-23T08:30:48.522Z,6.88
2022-11-23T08:32:53.295Z,6.81
2022-11-23T08:34:58.095Z,6.80
2022-11-23T08:37:05.416Z,6.81
2022-11-23T08:39:11.218Z,6.80
2022-11-23T08:41:18.219Z,6.79
2022-11-23T08:43:22.981Z,6.83
2022-11-23T08:45:27.950Z,6.88
2022-11-23T08:47:34.445Z,6.95
2022-11-23T08:49:39.253Z,6.93
2022-11-23T08:51:49.752Z,6.96
2022-11-23T08:53:57.639Z,6.96
2022-11-23T08:56:03.869Z,7.02
2022-11-23T08:58:13.142Z,7.01
2022-11-23T09:00:20.716Z,7.06
2022-11-23T09:02:25.507Z,7.04
2022-11-23T09:04:31.071Z,7.10
2022-11-23T09:06:36.191Z,7.20
2022-11-23T09:08:42.729Z,7.22
2022-11-23T09:10:50.079Z,7.32
2022-11-23T09:12:55.251Z,7.36
2022-11-23T09:15:00.025Z,7.41
2022-11-23T09:17:05.276Z,7.39
2022-11-23T09:19:09.806Z,7.45
2022-11-23T09:21:14.633Z,7.48
2022-11-23T09:23:19.383Z,7.56
2022-11-23T09:25:27.263Z,7.65
2022-11-23T09:27:34.591Z,7.76
2022-11-23T09:29:39.389Z,7.84
2022-11-23T09:31:44.507Z,7.89
2022-11-23T09:33:49.279Z,7.93
2022-11-23T09:36:00.064Z,8.05
2022-11-23T09:38:04.925Z,8.08
2022-11-23T09:40:12.476Z,8.11
2022-11-23T09:42:54.805Z,8.14
2022-11-23T09:45:11.544Z,8.23
2022-11-23T09:47:41.910Z,8.34
2022-11-23T09:49:55.018Z,8.37
2022-11-23T09:52:00.006Z,8.37
2022-11-23T09:54:13.309Z,8.41
2022-11-23T09:56:22.534Z,8.40
2022-11-23T09:58:35.449Z,8.46
2022-11-23T10:00:45.409Z,8.48
2022-11-23T10:02:50.630Z,8.49
2022-11-23T10:04:56.346Z,8.42
2022-11-23T10:07:13.280Z,8.47
2022-11-23T10:09:31.234Z,8.53
2022-11-23T10:12:06.793Z,8.60
2022-11-23T10:14:26.351Z,8.61
2022-11-23T10:16:41.558Z,8.62
2022-11-23T10:18:56.227Z,8.68
2022-11-23T10:21:09.457Z,8.75
2022-11-23T10:23:20.347Z,8.80
2022-11-23T10:25:27.267Z,8.84
2022-11-23T10:27:32.436Z,8.85
2022-11-23T10:29:40.516Z,8.77
2022-11-23T10:31:54.154Z,8.75
2022-11-23T10:34:07.392Z,8.81
2022-11-23T10:36:13.883Z,8.87
2022-11-23T10:38:20.045Z,8.98
2022-11-23T10:40:28.664Z,9.09
2022-11-23T10:42:39.153Z,9.14
2022-11-23T10:44:48.277Z,9.22
2022-11-23T10:46:53.023Z,9.29
2022-11-23T10:48:58.784Z,9.39
2022-11-23T10:51:18.614Z,9.52
2022-11-23T10:53:28.552Z,9.58
2022-11-23T10:55:35.180Z,9.69
2022-11-23T10:57:45.833Z,9.77
2022-11-23T11:00:01.291Z,9.77
2022-11-23T11:02:18.467Z,9.75
2022-11-23T11:04:26.081Z,9.75
2022-11-23T11:06:34.279Z,9.73
2022-11-23T11:08:51.466Z,9.71
2022-11-23T11:11:02.205Z,9.68
2022-11-23T11:13:26.446Z,9.66
2022-11-23T11:15:36.230Z,9.62
2022-11-23T11:17:44.080Z,9.58
2022-11-23T11:19:48.716Z,9.58
2022-11-23T11:21:53.608Z,9.62
2022-11-23T11:24:03.168Z,9.69
2022-11-23T11:26:19.798Z,9.81
2022-11-23T11:28:29.379Z,9.92
2022-11-23T11:30:53.640Z,9.96
2022-11-23T11:33:08.441Z,10.08
2022-11-23T11:35:21.082Z,10.14
2022-11-23T11:37:35.827Z,10.25
2022-11-23T11:39:47.246Z,10.29
2022-11-23T11:41:55.329Z,10.30
2022-11-23T11:44:07.961Z,10.21
2022-11-23T11:46:29.005Z,10.15
2022-11-23T11:48:39.602Z,10.14
2022-11-23T11:50:52.682Z,10.11
2022-11-23T11:53:03.407Z,10.08
2022-11-23T11:55:16.806Z,10.07
2022-11-23T11:57:25.276Z,10.06
2022-11-23T11:59:34.158Z,10.07
2022-11-23T12:01:51.415Z,10.05
2022-11-23T12:04:01.912Z,10.05
2022-11-23T12:06:12.295Z,10.09
2022-11-23T12:08:20.870Z,10.11
2022-11-23T12:10:30.774Z,10.12
2022-11-23T12:12:38.560Z,10.17
2022-11-23T12:14:43.390Z,10.13
2022-11-23T12:17:30.726Z,10.11
2022-11-23T12:19:30.524Z,10.10
2022-11-23T12:22:03.910Z,10.14
2022-11-23T12:24:18.640Z,10.10
2022-11-23T12:26:29.424Z,10.16
2022-11-23T12:28:52.957Z,10.19
2022-11-23T12:31:08.497Z,10.20
2022-11-23T12:33:43.387Z,10.22
2022-11-23T12:36:19.047Z,10.25
2022-11-23T12:38:33.816Z,10.27
2022-11-23T12:40:56.013Z,10.24
2022-11-23T12:43:04.814Z,10.24
2022-11-23T12:45:25.353Z,10.25
2022-11-23T12:47:41.740Z,10.24
2022-11-23T12:49:54.176Z,10.23
2022-11-23T12:52:12.840Z,10.17
2022-11-23T12:54:37.665Z,10.16
2022-11-23T12:57:07.735Z,10.14
2022-11-23T12:59:14.292Z,10.15
2022-11-23T13:01:30.472Z,10.16
2022-11-23T13:04:11.081Z,10.11
2022-11-23T13:07:05.579Z,10.06
2022-11-23T13:09:41.500Z,10.02
2022-11-23T13:12:04.002Z,10.03
2022-11-23T13:14:19.103Z,9.97
2022-11-23T13:16:34.486Z,9.96
2022-11-23T13:18:53.887Z,9.98
2022-11-23T13:21:12.373Z,9.97
2022-11-23T13:23:21.797Z,9.95
2022-11-23T13:25:28.991Z,9.94
2022-11-23T13:27:45.654Z,9.94
2022-11-23T13:30:01.183Z,9.93
2022-11-23T13:32:35.874Z,9.91
2022-11-23T13:34:51.139Z,9.88
2022-11-23T13:37:18.353Z,9.84
2022-11-23T13:40:03.768Z,9.85
2022-11-23T13:42:15.996Z,9.79
2022-11-23T13:44:25.080Z,9.77
2022-11-23T13:46:30.828Z,9.77
2022-11-23T13:49:01.057Z,9.77
2022-11-23T13:51:07.149Z,9.73
2022-11-23T13:53:25.458Z,9.77
2022-11-23T13:55:37.177Z,9.69
2022-11-23T13:57:49.831Z,9.66
2022-11-23T13:59:54.629Z,9.63
2022-11-23T14:02:29.253Z,9.65
2022-11-23T14:04:35.858Z,9.61
2022-11-23T14:06:51.438Z,9.62
2022-11-23T14:09:03.123Z,9.61
2022-11-23T14:11:17.592Z,9.64
2022-11-23T14:13:28.333Z,9.64
2022-11-23T14:15:36.781Z,9.62
2022-11-23T14:18:14.335Z,9.62
2022-11-23T14:20:40.223Z,9.60
2022-11-23T14:22:56.882Z,9.56
2022-11-23T14:25:19.353Z,9.52
2022-11-23T14:27:47.647Z,9.46
2022-11-23T14:30:08.241Z,9.47
2022-11-23T14:32:38.921Z,9.48
2022-11-23T14:34:56.374Z,9.48
2022-11-23T14:37:11.051Z,9.49
2022-11-23T14:39:54.840Z,9.51
2022-11-23T14:42:04.462Z,9.46
2022-11-23T14:44:14.366Z,9.45
2022-11-23T14:46:25.506Z,9.40
2022-11-23T14:48:32.099Z,9.37
2022-11-23T14:50:37.340Z,9.35
2022-11-23T14:52:42.124Z,9.32
2022-11-23T14:54:51.353Z,9.24
2022-11-23T14:57:00.547Z,9.20
2022-11-23T14:59:07.419Z,9.18
2022-11-23T15:01:24.503Z,9.16
2022-11-23T15:06:02.936Z,9.09
2022-11-23T15:08:13.308Z,9.10
2022-11-23T15:10:31.479Z,9.09
2022-11-23T15:12:44.921Z,9.05
2022-11-23T15:14:50.633Z,9.03
2022-11-23T15:16:58.421Z,9.02
2022-11-23T15:19:03.251Z,8.96
2022-11-23T15:21:25.373Z,8.92
2022-11-23T15:23:37.461Z,8.86
2022-11-23T15:25:53.977Z,8.80
2022-11-23T15:27:59.143Z,8.74
2022-11-23T15:30:04.004Z,8.68
2022-11-23T15:32:31.457Z,8.61
2022-11-23T15:34:38.074Z,8.60
2022-11-23T15:36:44.663Z,8.58
2022-11-23T15:38:49.746Z,8.53
2022-11-23T15:41:05.171Z,8.48
2022-11-23T15:43:15.549Z,8.39
2022-11-23T15:46:03.427Z,8.32
2022-11-23T15:48:16.844Z,8.28
2022-11-23T15:50:21.862Z,8.23
2022-11-23T15:52:26.689Z,8.19
2022-11-23T15:54:39.738Z,8.14
2022-11-23T15:56:49.173Z,8.18
2022-11-23T15:58:56.009Z,8.18
2022-11-23T16:01:08.602Z,8.19
2022-11-23T16:03:38.270Z,8.13
2022-11-23T16:05:43.099Z,8.09
2022-11-23T16:07:57.630Z,7.99
2022-11-23T16:10:20.150Z,7.99
2022-11-23T16:12:28.387Z,7.94
2022-11-23T16:14:35.170Z,7.92
2022-11-23T16:16:45.210Z,7.88
2022-11-23T16:18:57.899Z,7.88
2022-11-23T16:21:05.053Z,7.81
2022-11-23T16:23:19.350Z,7.76
2022-11-23T16:25:29.180Z,7.69
2022-11-23T16:27:34.091Z,7.66
2022-11-23T16:29:40.051Z,7.57
2022-11-23T16:31:54.673Z,7.57
2022-11-23T16:34:02.022Z,7.57
2022-11-23T16:36:07.323Z,7.54
2022-11-23T16:38:12.728Z,7.53
2022-11-23T16:40:17.633Z,7.49
2022-11-23T16:42:22.373Z,7.45
2022-11-23T16:44:27.177Z,7.40
2022-11-23T16:46:32.104Z,7.36
2022-11-23T16:48:43.040Z,7.37
2022-11-23T16:50:50.439Z,7.32
2022-11-23T16:52:55.748Z,7.33
2022-11-23T16:55:00.511Z,7.28
2022-11-23T16:57:05.528Z,7.26
2022-11-23T16:59:19.650Z,7.24
2022-11-23T17:01:28.339Z,7.18
2022-11-23T17:03:34.291Z,7.18
2022-11-23T17:05:40.474Z,7.20
2022-11-23T17:07:51.406Z,7.14
2022-11-23T17:09:59.421Z,7.15
2022-11-23T17:12:05.582Z,7.14
2022-11-23T17:14:19.182Z,7.10
2022-11-23T17:16:26.971Z,7.07
2022-11-23T17:18:32.145Z,7.03
2022-11-23T17:20:37.444Z,7.03
2022-11-23T17:22:43.422Z,7.02
2022-11-23T17:24:52.786Z,6.98
2022-11-23T17:26:57.907Z,6.97
2022-11-23T17:29:06.824Z,6.91
2022-11-23T17:31:13.286Z,6.87
2022-11-23T17:33:18.408Z,6.85
2022-11-23T17:35:23.644Z,6.86
2022-11-23T17:37:29.592Z,6.86
2022-11-23T17:39:35.400Z,6.82
2022-11-23T17:41:43.403Z,6.84
2022-11-23T17:43:48.613Z,6.81
2022-11-23T17:45:53.934Z,6.79
2022-11-23T17:48:03.299Z,6.78
2022-11-23T17:50:14.129Z,6.75
2022-11-23T17:52:19.601Z,6.72
2022-11-23T17:54:25.131Z,6.71
2022-11-23T17:56:30.261Z,6.67
2022-11-23T17:58:37.807Z,6.63
2022-11-23T18:00:45.107Z,6.57
2022-11-23T18:02:50.181Z,6.57
2022-11-23T18:04:54.995Z,6.52
2022-11-23T18:06:59.714Z,6.52
2022-11-23T18:09:04.594Z,6.52
2022-11-23T18:11:09.643Z,6.49
2022-11-23T18:13:14.369Z,6.47
2022-11-23T18:15:21.800Z,6.44
2022-11-23T18:17:29.328Z,6.41
2022-11-23T18:19:34.647Z,6.39
2022-11-23T18:21:45.008Z,6.37
2022-11-23T18:23:50.126Z,6.32
2022-11-23T18:26:02.087Z,6.26
2022-11-23T18:28:07.406Z,6.23
2022-11-23T18:30:13.179Z,6.21
2022-11-23T18:32:24.648Z,6.13
2022-11-23T18:34:29.463Z,6.09
2022-11-23T18:36:35.002Z,6.05
2022-11-23T18:38:40.664Z,6.05
2022-11-23T18:40:46.738Z,6.05
2022-11-23T18:42:51.768Z,6.05
2022-11-23T18:44:56.842Z,6.01
2022-11-23T18:47:01.595Z,6.02
2022-11-23T18:49:09.044Z,6.01
2022-11-23T18:51:13.971Z,5.99
2022-11-23T18:53:18.949Z,5.99
2022-11-23T18:55:23.785Z,5.99
2022-11-23T18:57:28.624Z,5.95
2022-11-23T19:01:58.297Z,5.88
2022-11-23T19:04:03.303Z,5.85
2022-11-23T19:06:16.160Z,5.88
2022-11-23T19:08:20.995Z,5.84
2022-11-23T19:10:26.185Z,5.80
2022-11-23T19:12:30.961Z,5.79
2022-11-23T19:14:35.756Z,5.77
2022-11-23T19:16:40.688Z,5.78
2022-11-23T19:18:46.175Z,5.82
2022-11-23T19:20:51.370Z,5.78
2022-11-23T19:22:58.824Z,5.77
2022-11-23T19:25:03.717Z,5.78
2022-11-23T19:27:08.571Z,5.82
2022-11-23T19:29:16.630Z,5.82
2022-11-23T19:31:25.542Z,5.86
2022-11-23T19:33:32.617Z,5.90
2022-11-23T19:35:37.426Z,5.90
2022-11-23T19:37:44.712Z,5.92
2022-11-23T19:39:52.294Z,5.97
2022-11-23T19:42:00.300Z,5.98
2022-11-23T19:44:05.118Z,5.94
2022-11-23T19:46:12.411Z,5.97
2022-11-23T19:48:17.450Z,5.97
2022-11-23T19:50:22.254Z,6.00
2022-11-23T19:52:48.042Z,6.00
2022-11-23T19:54:54.506Z,5.98
2022-11-23T19:56:59.357Z,5.97
2022-11-23T19:59:04.424Z,5.91
2022-11-23T20:01:10.028Z,5.86
2022-11-23T20:03:15.517Z,5.80
2022-11-23T20:05:21.515Z,5.80
2022-11-23T20:07:26.583Z,5.86
2022-11-23T20:09:31.720Z,5.90
2022-11-23T20:11:45.858Z,5.95
2022-11-23T20:13:53.249Z,5.96
2022-11-23T20:16:03.997Z,6.02
2022-11-23T20:18:08.885Z,6.12
2022-11-23T20:20:14.261Z,6.18
2022-11-23T20:22:18.998Z,6.23
2022-11-23T20:24:23.838Z,6.26
2022-11-23T20:26:29.343Z,6.31
2022-11-23T20:28:37.012Z,6.35
2022-11-23T20:30:41.935Z,6.41
2022-11-23T20:32:51.758Z,6.45
2022-11-23T20:34:56.800Z,6.45
2022-11-23T20:37:01.686Z,6.45
2022-11-23T20:39:08.472Z,6.45
2022-11-23T20:41:17.774Z,6.48
2022-11-23T20:43:22.525Z,6.49
2022-11-23T20:45:30.834Z,6.45
2022-11-23T20:47:35.632Z,6.48
2022-11-23T20:49:40.476Z,6.53
2022-11-23T20:51:45.393Z,6.59
2022-11-23T20:53:51.086Z,6.63
2022-11-23T20:56:04.115Z,6.67
2022-11-23T20:58:09.187Z,6.66
2022-11-23T21:00:16.968Z,6.64
2022-11-23T21:02:24.389Z,6.64
2022-11-23T21:04:29.321Z,6.58
2022-11-23T21:06:38.643Z,6.59
2022-11-23T21:08:50.521Z,6.63
2022-11-23T21:11:07.760Z,6.67
2022-11-23T21:13:29.023Z,6.70
2022-11-23T21:15:33.874Z,6.65
2022-11-23T21:17:41.405Z,6.67
2022-11-23T21:19:46.290Z,6.67
2022-11-23T21:21:51.658Z,6.70
2022-11-23T21:23:56.247Z,6.68
2022-11-23T21:26:06.085Z,6.72
2022-11-23T21:28:10.932Z,6.71
2022-11-23T21:30:18.977Z,6.70
2022-11-23T21:32:23.831Z,6.71
2022-11-23T21:34:32.908Z,6.69
2022-11-23T21:36:40.192Z,6.73
2022-11-23T21:38:45.512Z,6.76
2022-11-23T21:40:50.306Z,6.74
2022-11-23T21:42:55.102Z,6.75
2022-11-23T21:45:00.047Z,6.75
2022-11-23T21:47:04.866Z,6.73
2022-11-23T21:49:10.586Z,6.74
2022-11-23T21:51:18.713Z,6.76
2022-11-23T21:53:23.574Z,6.76
2022-11-23T21:55:28.387Z,6.77
2022-11-23T21:57:33.202Z,6.78
2022-11-23T21:59:38.617Z,6.78
2022-11-23T22:01:44.267Z,6.76
2022-11-23T22:03:51.072Z,6.77
2022-11-23T22:05:59.497Z,6.80
2022-11-23T22:08:28.617Z,6.80
2022-11-23T22:10:32.943Z,6.83
2022-11-23T22:12:37.757Z,6.86
2022-11-23T22:14:44.902Z,6.90
2022-11-23T22:16:53.820Z,6.96
2022-11-23T22:18:59.542Z,6.99
2022-11-23T22:21:06.392Z,7.05
2022-11-23T22:23:15.210Z,7.08
2022-11-23T22:25:20.127Z,7.10
2022-11-23T22:27:25.000Z,7.10
2022-11-23T22:29:29.754Z,7.12
2022-11-23T22:31:35.558Z,7.10
2022-11-23T22:33:40.670Z,7.08
2022-11-23T22:35:47.723Z,7.12
2022-11-23T22:37:52.453Z,7.13
2022-11-23T22:39:59.817Z,7.16
2022-11-23T22:42:04.587Z,7.15
2022-11-23T22:44:11.438Z,7.16
2022-11-23T22:46:17.795Z,7.20
2022-11-23T22:48:22.907Z,7.21
2022-11-23T22:50:27.692Z,7.23
2022-11-23T22:52:32.499Z,7.22
2022-11-23T22:54:37.288Z,7.23
2022-11-23T22:56:44.627Z,7.26
2022-11-23T22:58:50.786Z,7.24
2022-11-23T23:00:56.147Z,7.26
2022-11-23T23:03:01.011Z,7.28
2022-11-23T23:05:05.976Z,7.26
2022-11-23T23:07:10.843Z,7.25
2022-11-23T23:09:15.650Z,7.23
2022-11-23T23:11:21.271Z,7.22
2022-11-23T23:13:28.698Z,7.23
2022-11-23T23:15:33.448Z,7.24
2022-11-23T23:17:38.298Z,7.27
2022-11-23T23:19:43.038Z,7.28
2022-11-23T23:21:47.798Z,7.31
2022-11-23T23:23:54.431Z,7.31
2022-11-23T23:25:59.313Z,7.33
2022-11-23T23:28:04.055Z,7.35
2022-11-23T23:30:12.849Z,7.38
2022-11-23T23:32:17.642Z,7.35
2022-11-23T23:34:22.436Z,7.37
2022-11-23T23:36:27.687Z,7.38
2022-11-23T23:38:32.563Z,7.39
2022-11-23T23:40:37.681Z,7.40
2022-11-23T23:42:43.510Z,7.38
2022-11-23T23:44:48.245Z,7.36
2022-11-23T23:46:55.571Z,7.38
2022-11-23T23:49:01.357Z,7.42
2022-11-23T23:51:08.522Z,7.37
2022-11-23T23:53:16.427Z,7.42
2022-11-23T23:55:21.285Z,7.42
2022-11-23T23:57:26.070Z,7.43
2022-11-23T23:59:31.238Z,7.42
